sensor_id;sensor_type;location;lat;lon;timestamp;pressure;altitude;pressure_sealevel;temperature;humidity
75317;BME280;63913;51.492;10.368;2022-12-29T00:01:22;97441.91;;;7.82;77.49
75317;BME280;63913;51.492;10.368;2022-12-29T00:03:48;97438.56;;;7.86;77.47
75317;BME280;63913;51.492;10.368;2022-12-29T00:06:13;97437.69;;;7.85;77.22
75317;BME280;63913;51.492;10.368;2022-12-29T00:08:38;97440.25;;;7.87;77.24
75317;BME280;63913;51.492;10.368;2022-12-29T00:11:11;97412.19;;;7.91;77.33
75317;BME280;63913;51.492;10.368;2022-12-29T00:13:38;97406.22;;;7.91;77.32
75317;BME280;63913;51.492;10.368;2022-12-29T00:16:21;97391.59;;;7.84;77.81
75317;BME280;63913;51.492;10.368;2022-12-29T00:18:47;97401.03;;;7.86;77.60
75317;BME280;63913;51.492;10.368;2022-12-29T00:21:18;97409.56;;;7.85;77.83
75317;BME280;63913;51.492;10.368;2022-12-29T00:24:02;97412.09;;;7.85;77.71
75317;BME280;63913;51.492;10.368;2022-12-29T00:26:48;97395.16;;;7.93;77.62
75317;BME280;63913;51.492;10.368;2022-12-29T00:29:31;97401.25;;;8.03;76.97
75317;BME280;63913;51.492;10.368;2022-12-29T00:32:15;97399.53;;;8.00;77.24
75317;BME280;63913;51.492;10.368;2022-12-29T00:35:00;97397.78;;;7.98;77.42
75317;BME280;63913;51.492;10.368;2022-12-29T00:37:36;97408.88;;;7.98;77.71
75317;BME280;63913;51.492;10.368;2022-12-29T00:40:21;97398.69;;;8.03;77.51
75317;BME280;63913;51.492;10.368;2022-12-29T00:43:05;97400.44;;;8.02;77.79
75317;BME280;63913;51.492;10.368;2022-12-29T00:45:49;97403.81;;;8.03;77.75
75317;BME280;63913;51.492;10.368;2022-12-29T00:48:14;97398.78;;;8.08;77.59
75317;BME280;63913;51.492;10.368;2022-12-29T00:50:39;97408.09;;;8.04;77.96
75317;BME280;63913;51.492;10.368;2022-12-29T00:53:04;97402.97;;;8.04;78.17
75317;BME280;63913;51.492;10.368;2022-12-29T00:55:30;97417.56;;;8.08;78.18
75317;BME280;63913;51.492;10.368;2022-12-29T00:57:55;97400.53;;;8.10;77.62
75317;BME280;63913;51.492;10.368;2022-12-29T01:00:20;97418.41;;;8.07;78.10
75317;BME280;63913;51.492;10.368;2022-12-29T01:02:45;97404.84;;;8.14;77.59
75317;BME280;63913;51.492;10.368;2022-12-29T01:05:11;97401.38;;;8.09;78.11
75317;BME280;63913;51.492;10.368;2022-12-29T01:07:36;97398.03;;;8.15;77.85
75317;BME280;63913;51.492;10.368;2022-12-29T01:10:01;97410.00;;;8.17;77.83
75317;BME280;63913;51.492;10.368;2022-12-29T01:12:35;97413.31;;;8.12;78.26
75317;BME280;63913;51.492;10.368;2022-12-29T01:15:08;97410.78;;;8.10;78.89
75317;BME280;63913;51.492;10.368;2022-12-29T01:17:34;97404.84;;;8.14;78.61
75317;BME280;63913;51.492;10.368;2022-12-29T01:19:59;97404.88;;;8.16;78.63
75317;BME280;63913;51.492;10.368;2022-12-29T01:22:25;97399.69;;;8.13;78.74
75317;BME280;63913;51.492;10.368;2022-12-29T01:24:50;97392.09;;;8.17;78.66
75317;BME280;63913;51.492;10.368;2022-12-29T01:27:15;97398.06;;;8.19;78.29
75317;BME280;63913;51.492;10.368;2022-12-29T01:29:41;97388.69;;;8.20;78.74
75317;BME280;63913;51.492;10.368;2022-12-29T01:32:06;97400.66;;;8.21;78.57
75317;BME280;63913;51.492;10.368;2022-12-29T01:34:31;97393.91;;;8.27;78.45
75317;BME280;63913;51.492;10.368;2022-12-29T01:36:57;97393.88;;;8.24;79.10
75317;BME280;63913;51.492;10.368;2022-12-29T01:39:22;97395.59;;;8.24;78.83
75317;BME280;63913;51.492;10.368;2022-12-29T01:41:47;97382.81;;;8.25;78.94
75317;BME280;63913;51.492;10.368;2022-12-29T01:47:38;97367.47;;;8.28;78.54
75317;BME280;63913;51.492;10.368;2022-12-29T01:50:08;97364.00;;;8.23;79.29
75317;BME280;63913;51.492;10.368;2022-12-29T01:52:36;97367.44;;;8.24;79.26
75317;BME280;63913;51.492;10.368;2022-12-29T01:55:03;97364.88;;;8.24;79.34
75317;BME280;63913;51.492;10.368;2022-12-29T01:57:34;97371.72;;;8.28;79.11
75317;BME280;63913;51.492;10.368;2022-12-29T02:02:33;97343.75;;;8.40;78.50
75317;BME280;63913;51.492;10.368;2022-12-29T02:05:09;97339.50;;;8.40;78.78
75317;BME280;63913;51.492;10.368;2022-12-29T02:07:35;97336.94;;;8.40;78.67
75317;BME280;63913;51.492;10.368;2022-12-29T02:10:03;97328.41;;;8.40;78.74
75317;BME280;63913;51.492;10.368;2022-12-29T02:12:29;97330.06;;;8.38;78.86
75317;BME280;63913;51.492;10.368;2022-12-29T02:14:58;97335.97;;;8.31;79.34
75317;BME280;63913;51.492;10.368;2022-12-29T02:17:39;97333.47;;;8.37;79.15
75317;BME280;63913;51.492;10.368;2022-12-29T02:20:33;97335.22;;;8.39;78.92
75317;BME280;63913;51.492;10.368;2022-12-29T02:25:59;97349.84;;;8.48;78.77
75317;BME280;63913;51.492;10.368;2022-12-29T02:31:24;97337.06;;;8.53;78.46
75317;BME280;63913;51.492;10.368;2022-12-29T02:34:26;97319.16;;;8.54;78.31
75317;BME280;63913;51.492;10.368;2022-12-29T02:37:19;97308.91;;;8.51;78.45
75317;BME280;63913;51.492;10.368;2022-12-29T02:39:57;97312.41;;;8.59;78.07
75317;BME280;63913;51.492;10.368;2022-12-29T02:42:36;97327.84;;;8.67;77.74
75317;BME280;63913;51.492;10.368;2022-12-29T02:45:13;97291.94;;;8.64;78.30
75317;BME280;63913;51.492;10.368;2022-12-29T02:47:50;97295.31;;;8.61;78.43
75317;BME280;63913;51.492;10.368;2022-12-29T02:50:22;97300.53;;;8.67;78.12
75317;BME280;63913;51.492;10.368;2022-12-29T02:52:54;97304.81;;;8.71;77.94
75317;BME280;63913;51.492;10.368;2022-12-29T02:55:22;97306.56;;;8.74;77.92
75317;BME280;63913;51.492;10.368;2022-12-29T02:57:47;97314.25;;;8.77;77.56
75317;BME280;63913;51.492;10.368;2022-12-29T03:00:17;97313.41;;;8.73;77.82
75317;BME280;63913;51.492;10.368;2022-12-29T03:08:45;97316.91;;;8.83;77.57
75317;BME280;63913;51.492;10.368;2022-12-29T03:11:14;97322.91;;;8.84;77.70
75317;BME280;63913;51.492;10.368;2022-12-29T03:14:25;97310.94;;;8.83;78.31
75317;BME280;63913;51.492;10.368;2022-12-29T03:17:31;97305.78;;;8.81;78.26
75317;BME280;63913;51.492;10.368;2022-12-29T03:20:05;97324.59;;;8.82;78.63
75317;BME280;63913;51.492;10.368;2022-12-29T03:22:35;97305.75;;;8.78;79.11
75317;BME280;63913;51.492;10.368;2022-12-29T03:25:15;97318.59;;;8.84;79.02
75317;BME280;63913;51.492;10.368;2022-12-29T03:27:47;97314.34;;;8.82;79.14
75317;BME280;63913;51.492;10.368;2022-12-29T03:30:13;97302.28;;;8.76;79.40
75317;BME280;63913;51.492;10.368;2022-12-29T03:32:45;97306.56;;;8.74;79.37
75317;BME280;63913;51.492;10.368;2022-12-29T03:35:14;97304.03;;;8.75;79.29
75317;BME280;63913;51.492;10.368;2022-12-29T03:37:45;97294.59;;;8.76;79.36
75317;BME280;63913;51.492;10.368;2022-12-29T03:40:14;97293.78;;;8.75;79.20
75317;BME280;63913;51.492;10.368;2022-12-29T03:42:40;97299.75;;;8.77;79.19
75317;BME280;63913;51.492;10.368;2022-12-29T03:45:07;97292.94;;;8.78;79.03
75317;BME280;63913;51.492;10.368;2022-12-29T03:47:33;97281.78;;;8.76;79.25
75317;BME280;63913;51.492;10.368;2022-12-29T03:49:58;97292.94;;;8.79;78.73
75317;BME280;63913;51.492;10.368;2022-12-29T03:52:23;97266.56;;;8.90;77.73
75317;BME280;63913;51.492;10.368;2022-12-29T03:54:49;97277.66;;;8.89;77.82
75317;BME280;63913;51.492;10.368;2022-12-29T03:57:14;97270.84;;;8.91;77.61
75317;BME280;63913;51.492;10.368;2022-12-29T03:59:39;97261.41;;;8.87;77.50
75317;BME280;63913;51.492;10.368;2022-12-29T04:02:04;97258.84;;;8.84;77.37
75317;BME280;63913;51.492;10.368;2022-12-29T04:04:30;97265.66;;;8.85;77.34
75317;BME280;63913;51.492;10.368;2022-12-29T04:06:55;97267.38;;;8.87;77.21
75317;BME280;63913;51.492;10.368;2022-12-29T04:09:20;97263.97;;;8.88;77.04
75317;BME280;63913;51.492;10.368;2022-12-29T04:11:45;97275.13;;;8.92;76.89
75317;BME280;63913;51.492;10.368;2022-12-29T04:14:11;97269.13;;;8.90;76.71
75317;BME280;63913;51.492;10.368;2022-12-29T04:16:36;97270.00;;;8.93;76.48
75317;BME280;63913;51.492;10.368;2022-12-29T04:19:04;97276.03;;;8.98;76.20
75317;BME280;63913;51.492;10.368;2022-12-29T04:21:29;97261.53;;;9.02;76.03
75317;BME280;63913;51.492;10.368;2022-12-29T04:23:54;97273.53;;;9.06;76.18
75317;BME280;63913;51.492;10.368;2022-12-29T04:26:20;97264.13;;;9.05;76.28
75317;BME280;63913;51.492;10.368;2022-12-29T04:28:45;97265.00;;;9.05;76.15
75317;BME280;63913;51.492;10.368;2022-12-29T04:31:10;97265.81;;;9.03;76.35
75317;BME280;63913;51.492;10.368;2022-12-29T04:33:35;97272.75;;;9.17;75.75
75317;BME280;63913;51.492;10.368;2022-12-29T04:36:01;97272.72;;;9.11;75.89
75317;BME280;63913;51.492;10.368;2022-12-29T04:38:27;97264.16;;;9.11;76.05
75317;BME280;63913;51.492;10.368;2022-12-29T04:40:52;97253.94;;;9.14;75.90
75317;BME280;63913;51.492;10.368;2022-12-29T04:43:17;97275.25;;;9.08;76.50
75317;BME280;63913;51.492;10.368;2022-12-29T04:45:47;97256.47;;;9.11;76.16
75317;BME280;63913;51.492;10.368;2022-12-29T04:48:13;97258.19;;;9.10;76.31
75317;BME280;63913;51.492;10.368;2022-12-29T04:50:39;97266.72;;;9.09;76.68
75317;BME280;63913;51.492;10.368;2022-12-29T04:53:04;97259.88;;;9.10;76.61
75317;BME280;63913;51.492;10.368;2022-12-29T04:55:30;97258.19;;;9.10;76.79
75317;BME280;63913;51.492;10.368;2022-12-29T04:57:55;97255.63;;;9.10;76.82
75317;BME280;63913;51.492;10.368;2022-12-29T05:00:20;97246.16;;;9.03;77.28
75317;BME280;63913;51.492;10.368;2022-12-29T05:02:46;97246.13;;;9.00;77.57
75317;BME280;63913;51.492;10.368;2022-12-29T05:05:11;97248.69;;;9.00;77.84
75317;BME280;63913;51.492;10.368;2022-12-29T05:07:37;97253.88;;;9.05;77.53
75317;BME280;63913;51.492;10.368;2022-12-29T05:10:02;97252.16;;;9.05;77.68
75317;BME280;63913;51.492;10.368;2022-12-29T05:12:32;97256.47;;;9.08;77.77
75317;BME280;63913;51.492;10.368;2022-12-29T05:14:57;97254.72;;;9.08;77.84
75317;BME280;63913;51.492;10.368;2022-12-29T05:17:22;97250.44;;;9.04;78.10
75317;BME280;63913;51.492;10.368;2022-12-29T05:19:47;97247.84;;;9.01;78.14
75317;BME280;63913;51.492;10.368;2022-12-29T05:22:13;97235.94;;;9.09;77.78
75317;BME280;63913;51.492;10.368;2022-12-29T05:24:39;97240.22;;;9.09;77.96
75317;BME280;63913;51.492;10.368;2022-12-29T05:27:04;97241.91;;;9.08;77.87
75317;BME280;63913;51.492;10.368;2022-12-29T05:29:30;97242.78;;;9.10;78.09
75317;BME280;63913;51.492;10.368;2022-12-29T05:31:55;97226.53;;;9.08;78.04
75317;BME280;63913;51.492;10.368;2022-12-29T05:34:20;97234.31;;;9.16;77.68
75317;BME280;63913;51.492;10.368;2022-12-29T05:36:45;97233.44;;;9.15;77.86
75317;BME280;63913;51.492;10.368;2022-12-29T05:39:11;97234.31;;;9.19;77.53
75317;BME280;63913;51.492;10.368;2022-12-29T05:41:36;97229.22;;;9.25;77.29
75317;BME280;63913;51.492;10.368;2022-12-29T05:44:01;97230.09;;;9.24;77.56
75317;BME280;63913;51.492;10.368;2022-12-29T05:46:26;97226.66;;;9.24;77.53
75317;BME280;63913;51.492;10.368;2022-12-29T05:48:52;97226.63;;;9.21;77.65
75317;BME280;63913;51.492;10.368;2022-12-29T05:51:17;97228.31;;;9.15;77.85
75317;BME280;63913;51.492;10.368;2022-12-29T05:53:42;97231.78;;;9.25;76.92
75317;BME280;63913;51.492;10.368;2022-12-29T05:56:07;97226.66;;;9.27;76.82
75317;BME280;63913;51.492;10.368;2022-12-29T05:58:33;97224.09;;;9.25;77.18
75317;BME280;63913;51.492;10.368;2022-12-29T06:00:58;97222.38;;;9.26;76.89
75317;BME280;63913;51.492;10.368;2022-12-29T06:03:23;97222.34;;;9.19;77.12
75317;BME280;63913;51.492;10.368;2022-12-29T06:05:49;97227.50;;;9.23;76.85
75317;BME280;63913;51.492;10.368;2022-12-29T06:08:14;97228.34;;;9.20;76.61
75317;BME280;63913;51.492;10.368;2022-12-29T06:10:39;97214.72;;;9.27;76.34
75317;BME280;63913;51.492;10.368;2022-12-29T06:13:05;97220.69;;;9.28;75.65
75317;BME280;63913;51.492;10.368;2022-12-29T06:15:31;97217.34;;;9.36;75.70
75317;BME280;63913;51.492;10.368;2022-12-29T06:17:57;97225.00;;;9.35;75.66
75317;BME280;63913;51.492;10.368;2022-12-29T06:20:22;97232.75;;;9.38;75.65
75317;BME280;63913;51.492;10.368;2022-12-29T06:22:47;97248.13;;;9.36;75.38
75317;BME280;63913;51.492;10.368;2022-12-29T06:25:14;97231.88;;;9.36;75.43
75317;BME280;63913;51.492;10.368;2022-12-29T06:27:39;97239.59;;;9.42;74.98
75317;BME280;63913;51.492;10.368;2022-12-29T06:30:05;97224.19;;;9.37;75.45
75317;BME280;63913;51.492;10.368;2022-12-29T06:32:30;97225.03;;;9.36;75.47
75317;BME280;63913;51.492;10.368;2022-12-29T06:34:56;97213.06;;;9.37;75.25
75317;BME280;63913;51.492;10.368;2022-12-29T06:37:21;97219.88;;;9.35;75.35
75317;BME280;63913;51.492;10.368;2022-12-29T06:39:46;97212.22;;;9.38;75.48
75317;BME280;63913;51.492;10.368;2022-12-29T06:42:12;97212.22;;;9.36;75.67
75317;BME280;63913;51.492;10.368;2022-12-29T06:44:37;97223.28;;;9.34;75.42
75317;BME280;63913;51.492;10.368;2022-12-29T06:47:02;97219.03;;;9.34;75.59
75317;BME280;63913;51.492;10.368;2022-12-29T06:49:27;97245.53;;;9.33;75.53
75317;BME280;63913;51.492;10.368;2022-12-29T06:51:53;97239.59;;;9.39;75.33
75317;BME280;63913;51.492;10.368;2022-12-29T06:54:18;97238.75;;;9.43;75.37
75317;BME280;63913;51.492;10.368;2022-12-29T06:56:43;97234.44;;;9.37;75.44
75317;BME280;63913;51.492;10.368;2022-12-29T06:59:09;97244.75;;;9.45;75.31
75317;BME280;63913;51.492;10.368;2022-12-29T07:01:34;97243.03;;;9.45;75.57
75317;BME280;63913;51.492;10.368;2022-12-29T07:04:01;97258.44;;;9.44;75.44
75317;BME280;63913;51.492;10.368;2022-12-29T07:06:26;97241.31;;;9.40;75.51
75317;BME280;63913;51.492;10.368;2022-12-29T07:08:52;97254.13;;;9.43;75.52
75317;BME280;63913;51.492;10.368;2022-12-29T07:11:20;97237.91;;;9.44;75.28
75317;BME280;63913;51.492;10.368;2022-12-29T07:13:45;97252.41;;;9.42;75.61
75317;BME280;63913;51.492;10.368;2022-12-29T07:16:10;97260.16;;;9.46;74.89
75317;BME280;63913;51.492;10.368;2022-12-29T07:18:36;97258.47;;;9.48;75.34
75317;BME280;63913;51.492;10.368;2022-12-29T07:21:01;97250.75;;;9.47;75.70
75317;BME280;63913;51.492;10.368;2022-12-29T07:23:27;97242.16;;;9.42;75.88
75317;BME280;63913;51.492;10.368;2022-12-29T07:26:06;97255.81;;;9.41;75.90
75317;BME280;63913;51.492;10.368;2022-12-29T07:28:32;97271.28;;;9.45;76.00
75317;BME280;63913;51.492;10.368;2022-12-29T07:30:58;97261.81;;;9.41;75.96
75317;BME280;63913;51.492;10.368;2022-12-29T07:33:24;97267.81;;;9.43;75.71
75317;BME280;63913;51.492;10.368;2022-12-29T07:35:50;97264.47;;;9.53;75.17
75317;BME280;63913;51.492;10.368;2022-12-29T07:38:16;97267.91;;;9.54;75.50
75317;BME280;63913;51.492;10.368;2022-12-29T07:40:42;97261.06;;;9.54;75.63
75317;BME280;63913;51.492;10.368;2022-12-29T07:43:07;97268.72;;;9.50;75.77
75317;BME280;63913;51.492;10.368;2022-12-29T07:45:33;97255.03;;;9.51;75.84
75317;BME280;63913;51.492;10.368;2022-12-29T07:47:58;97253.28;;;9.44;76.47
75317;BME280;63913;51.492;10.368;2022-12-29T07:50:23;97252.44;;;9.45;76.19
75317;BME280;63913;51.492;10.368;2022-12-29T07:52:48;97254.16;;;9.49;75.82
75317;BME280;63913;51.492;10.368;2022-12-29T07:55:15;97247.34;;;9.49;75.96
75317;BME280;63913;51.492;10.368;2022-12-29T07:57:40;97245.66;;;9.53;75.44
75317;BME280;63913;51.492;10.368;2022-12-29T08:00:06;97261.09;;;9.56;75.20
75317;BME280;63913;51.492;10.368;2022-12-29T08:02:32;97260.25;;;9.63;75.02
75317;BME280;63913;51.492;10.368;2022-12-29T08:04:57;97256.81;;;9.61;75.01
75317;BME280;63913;51.492;10.368;2022-12-29T08:07:22;97253.38;;;9.57;75.15
75317;BME280;63913;51.492;10.368;2022-12-29T08:09:47;97254.25;;;9.60;74.42
75317;BME280;63913;51.492;10.368;2022-12-29T08:12:13;97256.78;;;9.58;75.11
75317;BME280;63913;51.492;10.368;2022-12-29T08:14:38;97263.66;;;9.56;74.99
75317;BME280;63913;51.492;10.368;2022-12-29T08:17:03;97256.84;;;9.64;74.49
75317;BME280;63913;51.492;10.368;2022-12-29T08:19:29;97261.97;;;9.66;74.58
75317;BME280;63913;51.492;10.368;2022-12-29T08:21:54;97266.31;;;9.71;74.16
75317;BME280;63913;51.492;10.368;2022-12-29T08:24:20;97257.72;;;9.65;74.71
75317;BME280;63913;51.492;10.368;2022-12-29T08:26:45;97249.16;;;9.63;74.99
75317;BME280;63913;51.492;10.368;2022-12-29T08:29:10;97246.59;;;9.64;75.16
75317;BME280;63913;51.492;10.368;2022-12-29T08:31:35;97253.47;;;9.71;75.10
75317;BME280;63913;51.492;10.368;2022-12-29T08:34:01;97251.72;;;9.67;76.22
75317;BME280;63913;51.492;10.368;2022-12-29T08:36:28;97262.81;;;9.62;76.66
75317;BME280;63913;51.492;10.368;2022-12-29T08:38:53;97267.03;;;9.53;77.09
75317;BME280;63913;51.492;10.368;2022-12-29T08:41:19;97269.63;;;9.55;76.71
75317;BME280;63913;51.492;10.368;2022-12-29T08:43:48;97267.06;;;9.56;76.94
75317;BME280;63913;51.492;10.368;2022-12-29T08:46:13;97252.50;;;9.52;77.34
75317;BME280;63913;51.492;10.368;2022-12-29T08:48:39;97250.78;;;9.48;77.27
75317;BME280;63913;51.492;10.368;2022-12-29T08:51:04;97272.13;;;9.44;77.64
75317;BME280;63913;51.492;10.368;2022-12-29T08:53:29;97259.31;;;9.47;76.83
75317;BME280;63913;51.492;10.368;2022-12-29T08:55:56;97261.88;;;9.47;77.20
75317;BME280;63913;51.492;10.368;2022-12-29T08:58:22;97267.00;;;9.50;77.37
75317;BME280;63913;51.492;10.368;2022-12-29T09:00:47;97265.31;;;9.48;77.46
75317;BME280;63913;51.492;10.368;2022-12-29T09:03:12;97265.28;;;9.45;78.12
75317;BME280;63913;51.492;10.368;2022-12-29T09:05:38;97271.22;;;9.41;78.18
75317;BME280;63913;51.492;10.368;2022-12-29T09:08:03;97263.53;;;9.41;78.78
75317;BME280;63913;51.492;10.368;2022-12-29T09:10:29;97260.94;;;9.36;79.58
75317;BME280;63913;51.492;10.368;2022-12-29T09:12:54;97271.22;;;9.38;79.74
75317;BME280;63913;51.492;10.368;2022-12-29T09:15:20;97259.22;;;9.37;80.16
75317;BME280;63913;51.492;10.368;2022-12-29T09:17:45;97269.47;;;9.31;80.96
75317;BME280;63913;51.492;10.368;2022-12-29T09:20:16;97267.69;;;9.25;81.29
75317;BME280;63913;51.492;10.368;2022-12-29T09:22:42;97285.59;;;9.19;81.23
75317;BME280;63913;51.492;10.368;2022-12-29T09:25:09;97280.50;;;9.21;81.04
75317;BME280;63913;51.492;10.368;2022-12-29T09:27:35;97273.59;;;9.16;81.75
75317;BME280;63913;51.492;10.368;2022-12-29T09:30:01;97274.47;;;9.15;81.82
75317;BME280;63913;51.492;10.368;2022-12-29T09:32:26;97282.19;;;9.20;80.81
75317;BME280;63913;51.492;10.368;2022-12-29T09:34:51;97295.91;;;9.22;81.23
75317;BME280;63913;51.492;10.368;2022-12-29T09:37:17;97289.06;;;9.23;81.47
75317;BME280;63913;51.492;10.368;2022-12-29T09:39:42;97285.59;;;9.17;82.43
75317;BME280;63913;51.492;10.368;2022-12-29T09:42:24;97295.78;;;9.11;82.57
75317;BME280;63913;51.492;10.368;2022-12-29T09:45:08;97299.19;;;9.09;83.14
75317;BME280;63913;51.492;10.368;2022-12-29T09:47:36;97292.34;;;9.06;83.20
75317;BME280;63913;51.492;10.368;2022-12-29T09:50:06;97296.63;;;9.06;83.21
75317;BME280;63913;51.492;10.368;2022-12-29T09:52:42;97310.28;;;9.05;83.43
75317;BME280;63913;51.492;10.368;2022-12-29T09:55:13;97310.31;;;9.08;82.34
75317;BME280;63913;51.492;10.368;2022-12-29T09:57:45;97318.84;;;9.10;82.32
75317;BME280;63913;51.492;10.368;2022-12-29T10:00:18;97313.72;;;9.08;81.82
75317;BME280;63913;51.492;10.368;2022-12-29T10:02:48;97314.56;;;9.06;83.06
75317;BME280;63913;51.492;10.368;2022-12-29T10:05:40;97320.50;;;9.03;82.57
75317;BME280;63913;51.492;10.368;2022-12-29T10:08:24;97302.53;;;9.02;81.34
75317;BME280;63913;51.492;10.368;2022-12-29T10:19:57;97302.81;;;9.31;77.15
75317;BME280;63913;51.492;10.368;2022-12-29T10:25:25;97320.81;;;9.37;75.89
75317;BME280;63913;51.492;10.368;2022-12-29T10:27:53;97308.03;;;9.44;74.51
75317;BME280;63913;51.492;10.368;2022-12-29T10:30:19;97301.22;;;9.48;74.08
75317;BME280;63913;51.492;10.368;2022-12-29T10:32:48;97307.22;;;9.48;73.56
75317;BME280;63913;51.492;10.368;2022-12-29T10:40:42;97291.78;;;9.45;73.15
75317;BME280;63913;51.492;10.368;2022-12-29T10:43:27;97313.19;;;9.46;73.01
75317;BME280;63913;51.492;10.368;2022-12-29T10:45:56;97301.22;;;9.46;72.97
75317;BME280;63913;51.492;10.368;2022-12-29T10:48:25;97303.72;;;9.42;73.51
75317;BME280;63913;51.492;10.368;2022-12-29T10:50:55;97313.19;;;9.46;73.63
75317;BME280;63913;51.492;10.368;2022-12-29T10:53:25;97308.03;;;9.44;73.87
75317;BME280;63913;51.492;10.368;2022-12-29T10:55:52;97318.31;;;9.50;72.90
75317;BME280;63913;51.492;10.368;2022-12-29T10:58:19;97326.09;;;9.56;72.81
75317;BME280;63913;51.492;10.368;2022-12-29T11:00:51;97341.44;;;9.52;73.32
75317;BME280;63913;51.492;10.368;2022-12-29T11:06:27;97342.34;;;9.58;72.08
75317;BME280;63913;51.492;10.368;2022-12-29T11:08:56;97327.00;;;9.65;71.76
75317;BME280;63913;51.492;10.368;2022-12-29T11:11:25;97327.00;;;9.66;71.51
75317;BME280;63913;51.492;10.368;2022-12-29T11:13:56;97311.63;;;9.74;71.15
75317;BME280;63913;51.492;10.368;2022-12-29T11:16:31;97297.97;;;9.72;71.04
75317;BME280;63913;51.492;10.368;2022-12-29T11:18:57;97311.63;;;9.71;71.28
75317;BME280;63913;51.492;10.368;2022-12-29T11:23:56;97312.50;;;9.76;70.57
75317;BME280;63913;51.492;10.368;2022-12-29T11:26:23;97303.09;;;9.76;70.05
75317;BME280;63913;51.492;10.368;2022-12-29T11:29:16;97303.97;;;9.77;70.28
75317;BME280;63913;51.492;10.368;2022-12-29T11:31:57;97286.88;;;9.77;69.60
75317;BME280;63913;51.492;10.368;2022-12-29T11:34:31;97288.59;;;9.78;68.30
75317;BME280;63913;51.492;10.368;2022-12-29T11:37:00;97302.28;;;9.79;68.11
75317;BME280;63913;51.492;10.368;2022-12-29T11:39:37;97305.66;;;9.75;69.01
75317;BME280;63913;51.492;10.368;2022-12-29T11:42:06;97307.41;;;9.79;69.54
75317;BME280;63913;51.492;10.368;2022-12-29T11:44:42;97316.84;;;9.80;68.74
75317;BME280;63913;51.492;10.368;2022-12-29T11:47:10;97296.28;;;9.81;68.53
75317;BME280;63913;51.492;10.368;2022-12-29T11:49:37;97325.41;;;9.83;68.65
75317;BME280;63913;51.492;10.368;2022-12-29T11:52:03;97324.53;;;9.83;67.96
75317;BME280;63913;51.492;10.368;2022-12-29T11:54:32;97313.41;;;9.79;67.28
75317;BME280;63913;51.492;10.368;2022-12-29T11:57:09;97311.69;;;9.80;67.31
75317;BME280;63913;51.492;10.368;2022-12-29T11:59:38;97320.19;;;9.74;68.20
75317;BME280;63913;51.492;10.368;2022-12-29T12:04:49;97336.44;;;9.73;67.39
75317;BME280;63913;51.492;10.368;2022-12-29T12:07:42;97315.94;;;9.72;67.34
75317;BME280;63913;51.492;10.368;2022-12-29T12:13:11;97331.31;;;9.73;67.60
75317;BME280;63913;51.492;10.368;2022-12-29T12:15:43;97330.53;;;9.80;66.62
75317;BME280;63913;51.492;10.368;2022-12-29T12:18:28;97321.94;;;9.77;66.94
75317;BME280;63913;51.492;10.368;2022-12-29T12:21:04;97315.09;;;9.76;66.75
75317;BME280;63913;51.492;10.368;2022-12-29T12:23:40;97333.91;;;9.75;66.45
75317;BME280;63913;51.492;10.368;2022-12-29T12:26:21;97342.44;;;9.74;66.11
75317;BME280;63913;51.492;10.368;2022-12-29T12:28:53;97338.16;;;9.74;66.81
75317;BME280;63913;51.492;10.368;2022-12-29T12:34:03;97327.88;;;9.68;66.45
75317;BME280;63913;51.492;10.368;2022-12-29T12:39:44;97335.56;;;9.67;66.29
75317;BME280;63913;51.492;10.368;2022-12-29T12:45:19;97360.38;;;9.68;65.71
75317;BME280;63913;51.492;10.368;2022-12-29T12:50:35;97344.94;;;9.63;63.43
75317;BME280;63913;51.492;10.368;2022-12-29T12:53:46;97345.78;;;9.61;64.29
75317;BME280;63913;51.492;10.368;2022-12-29T13:02:31;97358.66;;;9.64;62.80
75317;BME280;63913;51.492;10.368;2022-12-29T13:05:09;97360.31;;;9.60;63.49
75317;BME280;63913;51.492;10.368;2022-12-29T13:10:32;97367.13;;;9.55;64.18
75317;BME280;63913;51.492;10.368;2022-12-29T13:16:17;97379.13;;;9.56;63.58
75317;BME280;63913;51.492;10.368;2022-12-29T13:19:11;97374.00;;;9.61;63.18
75317;BME280;63913;51.492;10.368;2022-12-29T13:24:28;97342.34;;;9.58;63.26
75317;BME280;63913;51.492;10.368;2022-12-29T13:29:33;97373.13;;;9.58;63.41
75317;BME280;63913;51.492;10.368;2022-12-29T13:32:25;97365.44;;;9.60;63.31
75317;BME280;63913;51.492;10.368;2022-12-29T13:35:32;97393.63;;;9.57;63.69
75317;BME280;63913;51.492;10.368;2022-12-29T13:38:07;97379.97;;;9.60;63.89
75317;BME280;63913;51.492;10.368;2022-12-29T13:40:40;97367.97;;;9.57;64.01
75317;BME280;63913;51.492;10.368;2022-12-29T13:43:06;97358.59;;;9.56;64.38
75317;BME280;63913;51.492;10.368;2022-12-29T13:45:34;97362.84;;;9.57;64.52
75317;BME280;63913;51.492;10.368;2022-12-29T13:48:07;97368.00;;;9.60;65.01
75317;BME280;63913;51.492;10.368;2022-12-29T13:50:38;97374.88;;;9.61;64.89
75317;BME280;63913;51.492;10.368;2022-12-29T13:53:32;97365.44;;;9.58;65.51
75317;BME280;63913;51.492;10.368;2022-12-29T13:56:05;97371.44;;;9.61;64.58
75317;BME280;63913;51.492;10.368;2022-12-29T13:58:36;97377.41;;;9.58;65.26
75317;BME280;63913;51.492;10.368;2022-12-29T14:01:22;97375.69;;;9.57;65.03
75317;BME280;63913;51.492;10.368;2022-12-29T14:03:54;97378.22;;;9.52;65.56
75317;BME280;63913;51.492;10.368;2022-12-29T14:06:28;97391.09;;;9.55;65.25
75317;BME280;63913;51.492;10.368;2022-12-29T14:09:03;97401.34;;;9.57;65.32
75317;BME280;63913;51.492;10.368;2022-12-29T14:11:34;97389.38;;;9.56;65.17
75317;BME280;63913;51.492;10.368;2022-12-29T14:14:21;97402.22;;;9.56;65.52
75317;BME280;63913;51.492;10.368;2022-12-29T14:16:48;97386.78;;;9.54;65.78
75317;BME280;63913;51.492;10.368;2022-12-29T14:19:17;97408.19;;;9.55;65.60
75317;BME280;63913;51.492;10.368;2022-12-29T14:21:57;97414.16;;;9.54;66.29
75317;BME280;63913;51.492;10.368;2022-12-29T14:34:50;97425.19;;;9.45;67.19
75317;BME280;63913;51.492;10.368;2022-12-29T14:37:27;97421.81;;;9.48;66.71
75317;BME280;63913;51.492;10.368;2022-12-29T14:42:37;97438.06;;;9.48;66.46